createdAt,value
2022-12-28T00:00:44.539Z,0
2022-12-28T00:01:41.571Z,0
2022-12-28T00:02:41.545Z,0
2022-12-28T00:03:41.304Z,0
2022-12-28T00:04:41.336Z,0
2022-12-28T00:05:41.339Z,0
2022-12-28T00:06:41.316Z,0
2022-12-28T00:07:43.458Z,0
2022-12-28T00:08:41.290Z,0
2022-12-28T00:09:41.316Z,0
2022-12-28T00:11:33.534Z,0
2022-12-28T00:11:45.830Z,0
2022-12-28T00:12:42.997Z,0
2022-12-28T00:13:43.010Z,0
2022-12-28T00:14:43.001Z,0
2022-12-28T00:15:42.997Z,0
2022-12-28T00:16:43.233Z,0
2022-12-28T00:17:43.032Z,0
2022-12-28T00:18:43.035Z,0
2022-12-28T00:19:43.026Z,0
2022-12-28T00:20:43.066Z,0
2022-12-28T00:21:43.079Z,0
2022-12-28T00:22:46.180Z,0
2022-12-28T00:23:43.019Z,0
2022-12-28T00:24:43.031Z,0
2022-12-28T00:25:43.017Z,0
2022-12-28T00:26:43.085Z,0
2022-12-28T00:27:43.024Z,0
2022-12-28T00:28:43.021Z,0
2022-12-28T00:29:43.025Z,0
2022-12-28T00:30:43.060Z,0
2022-12-28T00:31:43.468Z,0
2022-12-28T00:32:43.048Z,0
2022-12-28T00:33:43.034Z,0
2022-12-28T00:34:43.042Z,0
2022-12-28T00:35:43.035Z,0
2022-12-28T00:37:18.736Z,0
2022-12-28T00:37:43.081Z,0
2022-12-28T00:38:46.178Z,0
2022-12-28T00:39:43.065Z,0
2022-12-28T00:40:43.075Z,0
2022-12-28T00:41:43.090Z,0
2022-12-28T00:42:43.202Z,0
2022-12-28T00:43:43.050Z,0
2022-12-28T00:44:43.053Z,0
2022-12-28T00:45:43.228Z,0
2022-12-28T00:46:43.084Z,0
2022-12-28T00:47:43.115Z,0
2022-12-28T00:48:43.059Z,0
2022-12-28T00:49:45.852Z,0
2022-12-28T00:50:43.061Z,0
2022-12-28T00:51:43.078Z,0
2022-12-28T00:52:43.206Z,0
2022-12-28T00:53:45.882Z,0
2022-12-28T00:54:46.136Z,0
2022-12-28T00:55:43.066Z,0
2022-12-28T00:56:43.063Z,0
2022-12-28T00:57:43.125Z,0
2022-12-28T00:58:43.096Z,0
2022-12-28T00:59:43.060Z,0
2022-12-28T01:00:43.320Z,0
2022-12-28T01:01:43.635Z,0
2022-12-28T01:02:43.482Z,0
2022-12-28T01:03:43.084Z,0
2022-12-28T01:04:43.061Z,0
2022-12-28T01:05:46.141Z,0
2022-12-28T01:06:43.649Z,0
2022-12-28T01:07:43.140Z,0
2022-12-28T01:08:43.140Z,0
2022-12-28T01:09:43.089Z,0
2022-12-28T01:10:43.060Z,0
2022-12-28T01:11:43.116Z,0
2022-12-28T01:12:45.361Z,0
2022-12-28T01:13:43.103Z,0
2022-12-28T01:14:43.137Z,0
2022-12-28T01:15:43.100Z,0
2022-12-28T01:16:46.361Z,0
2022-12-28T01:17:43.153Z,0
2022-12-28T01:18:43.645Z,0
2022-12-28T01:19:45.123Z,0
2022-12-28T01:20:43.097Z,0
2022-12-28T01:21:43.151Z,0
2022-12-28T01:22:43.156Z,0
2022-12-28T01:23:43.113Z,0
2022-12-28T01:24:43.182Z,0
2022-12-28T01:25:43.137Z,0
2022-12-28T01:26:43.119Z,0
2022-12-28T01:27:46.301Z,0
2022-12-28T01:28:43.110Z,0
2022-12-28T01:29:43.123Z,0
2022-12-28T01:30:45.988Z,0
2022-12-28T01:31:43.476Z,0
2022-12-28T01:32:43.178Z,0
2022-12-28T01:33:43.153Z,0
2022-12-28T01:34:43.161Z,0
2022-12-28T01:35:43.151Z,0
2022-12-28T01:36:43.129Z,0
2022-12-28T01:37:44.187Z,0
2022-12-28T01:38:45.953Z,0
2022-12-28T01:39:43.146Z,0
2022-12-28T01:40:43.188Z,0
2022-12-28T01:41:43.148Z,0
2022-12-28T01:42:43.166Z,0
2022-12-28T01:43:46.064Z,0
2022-12-28T01:44:43.159Z,0
2022-12-28T01:46:43.144Z,0
2022-12-28T01:47:43.215Z,0
2022-12-28T01:48:43.129Z,0
2022-12-28T01:49:45.980Z,0
2022-12-28T01:50:43.125Z,0
2022-12-28T01:51:43.200Z,0
2022-12-28T01:52:43.190Z,0
2022-12-28T01:53:43.156Z,0
2022-12-28T01:54:45.978Z,0
2022-12-28T01:55:43.182Z,0
2022-12-28T01:56:43.220Z,0
2022-12-28T01:57:43.196Z,0
2022-12-28T01:58:43.272Z,0
2022-12-28T01:59:43.145Z,0
2022-12-28T02:00:46.187Z,0
2022-12-28T02:01:43.705Z,0
2022-12-28T02:02:44.068Z,0
2022-12-28T02:03:43.159Z,0
2022-12-28T02:04:43.186Z,0
2022-12-28T02:05:46.224Z,0
2022-12-28T02:06:43.157Z,0
2022-12-28T02:07:43.235Z,0
2022-12-28T02:08:43.245Z,0
2022-12-28T02:09:43.180Z,0
2022-12-28T02:10:52.729Z,0
2022-12-28T02:11:52.841Z,0
2022-12-28T02:12:50.222Z,0
2022-12-28T02:13:49.939Z,0
2022-12-28T02:14:49.979Z,0
2022-12-28T02:15:50.082Z,0
2022-12-28T02:16:50.393Z,0
2022-12-28T02:17:52.832Z,0
2022-12-28T02:18:50.646Z,0
2022-12-28T02:19:49.973Z,0
2022-12-28T02:20:50.002Z,0
2022-12-28T02:21:49.975Z,0
2022-12-28T02:22:53.028Z,0
2022-12-28T02:23:50.002Z,0
2022-12-28T02:24:49.968Z,0
2022-12-28T02:25:49.987Z,0
2022-12-28T02:26:50.085Z,0
2022-12-28T02:27:50.033Z,0
2022-12-28T02:28:50.006Z,0
2022-12-28T02:29:50.016Z,0
2022-12-28T02:30:50.228Z,0
2022-12-28T02:31:50.012Z,0
2022-12-28T02:32:50.034Z,0
2022-12-28T02:33:52.798Z,0
2022-12-28T02:34:50.023Z,0
2022-12-28T02:35:50.047Z,0
2022-12-28T02:36:50.031Z,0
2022-12-28T02:37:52.749Z,0
2022-12-28T02:38:50.013Z,0
2022-12-28T02:39:50.006Z,0
2022-12-28T02:40:49.993Z,0
2022-12-28T02:41:50.009Z,0
2022-12-28T02:42:50.002Z,0
2022-12-28T02:43:50.144Z,0
2022-12-28T02:44:50.011Z,0
2022-12-28T02:45:50.377Z,0
2022-12-28T02:46:50.028Z,0
2022-12-28T02:47:50.000Z,0
2022-12-28T02:48:50.058Z,0
2022-12-28T02:49:50.053Z,0
2022-12-28T02:50:50.004Z,0
2022-12-28T02:51:50.008Z,0
2022-12-28T02:52:50.053Z,0
2022-12-28T02:53:50.037Z,0
2022-12-28T02:54:50.015Z,0
2022-12-28T02:55:50.019Z,0
2022-12-28T02:56:50.015Z,0
2022-12-28T02:57:50.042Z,0
2022-12-28T02:58:50.020Z,0
2022-12-28T02:59:50.053Z,0
2022-12-28T03:00:52.791Z,0
2022-12-28T03:01:50.579Z,0
2022-12-28T03:02:50.608Z,0
2022-12-28T03:03:50.023Z,0
2022-12-28T03:04:50.051Z,0
2022-12-28T03:05:53.087Z,0
2022-12-28T03:06:50.047Z,0
2022-12-28T03:07:50.033Z,0
2022-12-28T03:08:50.060Z,0
2022-12-28T03:09:50.042Z,0
2022-12-28T03:10:50.030Z,0
2022-12-28T03:11:53.167Z,0
2022-12-28T03:12:50.061Z,0
2022-12-28T03:13:50.080Z,0
2022-12-28T03:14:50.109Z,0
2022-12-28T03:15:50.392Z,0
2022-12-28T03:16:53.065Z,0
2022-12-28T03:17:50.069Z,0
2022-12-28T03:18:50.053Z,0
2022-12-28T03:19:50.056Z,0
2022-12-28T03:20:50.104Z,0
2022-12-28T03:21:50.094Z,0
2022-12-28T03:22:53.200Z,0
2022-12-28T03:23:50.063Z,0
2022-12-28T03:24:50.084Z,0
2022-12-28T03:25:50.058Z,0
2022-12-28T03:26:50.063Z,0
2022-12-28T03:27:52.911Z,0
2022-12-28T03:28:50.046Z,0
2022-12-28T03:29:50.079Z,0
2022-12-28T03:30:50.273Z,0
2022-12-28T03:31:50.149Z,0
2022-12-28T03:32:50.147Z,0
2022-12-28T03:33:53.167Z,0
2022-12-28T03:34:50.068Z,0
2022-12-28T03:35:50.071Z,0
2022-12-28T03:36:50.074Z,0
2022-12-28T03:37:50.124Z,0
2022-12-28T03:38:52.946Z,0
2022-12-28T03:39:50.094Z,0
2022-12-28T03:40:50.169Z,0
2022-12-28T03:41:50.073Z,0
2022-12-28T03:42:50.174Z,0
2022-12-28T03:43:50.127Z,0
2022-12-28T03:44:52.833Z,0
2022-12-28T03:45:53.974Z,0
2022-12-28T03:46:50.250Z,0
2022-12-28T03:47:50.243Z,0
2022-12-28T03:48:50.165Z,0
2022-12-28T03:49:52.886Z,0
2022-12-28T03:50:50.103Z,0
2022-12-28T03:51:50.096Z,0
2022-12-28T03:52:50.099Z,0
2022-12-28T03:53:50.163Z,0
2022-12-28T03:54:50.123Z,0
2022-12-28T03:55:53.050Z,0
2022-12-28T03:56:50.112Z,0
2022-12-28T03:57:50.120Z,0
2022-12-28T03:58:50.346Z,0
2022-12-28T03:59:50.143Z,0
2022-12-28T04:00:53.122Z,0
2022-12-28T04:01:50.757Z,0
2022-12-28T04:02:50.719Z,0
2022-12-28T04:03:50.221Z,0
2022-12-28T04:04:50.115Z,0
2022-12-28T04:05:50.127Z,0
2022-12-28T04:06:50.134Z,0
2022-12-28T04:07:50.117Z,0
2022-12-28T04:08:50.195Z,0
2022-12-28T04:09:50.175Z,0
2022-12-28T04:10:50.137Z,0
2022-12-28T04:11:53.308Z,0
2022-12-28T04:12:50.152Z,0
2022-12-28T04:13:50.340Z,0
2022-12-28T04:14:50.135Z,0
2022-12-28T04:15:50.401Z,0
2022-12-28T04:16:50.197Z,0
2022-12-28T04:17:50.138Z,0
2022-12-28T04:18:50.213Z,0
2022-12-28T04:19:50.178Z,0
2022-12-28T04:20:50.150Z,0
2022-12-28T04:21:50.146Z,0
2022-12-28T04:22:52.945Z,0
2022-12-28T04:23:50.177Z,0
2022-12-28T04:24:50.174Z,0
2022-12-28T04:25:50.196Z,0
2022-12-28T04:26:50.159Z,0
2022-12-28T04:27:50.176Z,0
2022-12-28T04:28:50.188Z,0
2022-12-28T04:29:50.191Z,0
2022-12-28T04:30:50.192Z,0
2022-12-28T04:31:50.401Z,0
2022-12-28T04:32:50.174Z,0
2022-12-28T04:33:52.949Z,0
2022-12-28T04:34:55.643Z,0
2022-12-28T04:35:50.197Z,0
2022-12-28T04:36:50.207Z,0
2022-12-28T04:37:50.181Z,0
2022-12-28T04:38:51.137Z,0
2022-12-28T04:40:03.693Z,0
2022-12-28T04:40:50.196Z,0
2022-12-28T04:41:50.219Z,0
2022-12-28T04:42:50.195Z,0
2022-12-28T04:43:50.227Z,0
2022-12-28T04:44:53.141Z,0
2022-12-28T04:45:50.187Z,0
2022-12-28T04:46:50.417Z,0
2022-12-28T04:47:50.189Z,0
2022-12-28T04:48:50.205Z,0
2022-12-28T04:49:53.239Z,0
2022-12-28T04:50:50.220Z,0
2022-12-28T04:51:50.221Z,0
2022-12-28T04:52:50.202Z,0
2022-12-28T04:53:50.303Z,0
2022-12-28T04:54:50.190Z,0
2022-12-28T04:55:50.240Z,0
2022-12-28T04:56:50.289Z,0
2022-12-28T04:57:50.258Z,0
2022-12-28T04:58:50.209Z,0
2022-12-28T04:59:50.270Z,0
2022-12-28T05:00:53.356Z,0
2022-12-28T05:01:51.112Z,0
2022-12-28T05:02:53.637Z,0
2022-12-28T05:04:01.881Z,0
2022-12-28T05:04:50.256Z,0
2022-12-28T05:05:50.231Z,0
2022-12-28T05:06:50.250Z,0
2022-12-28T05:07:50.239Z,0
2022-12-28T05:08:50.288Z,0
2022-12-28T05:09:50.228Z,0
2022-12-28T05:10:50.247Z,0
2022-12-28T05:11:50.216Z,0
2022-12-28T05:12:50.223Z,0
2022-12-28T05:13:50.262Z,0
2022-12-28T05:14:50.236Z,0
2022-12-28T05:15:50.682Z,0
2022-12-28T05:16:50.251Z,0
2022-12-28T05:17:50.237Z,0
2022-12-28T05:18:50.287Z,0
2022-12-28T05:19:50.266Z,0
2022-12-28T05:20:50.250Z,0
2022-12-28T05:21:50.249Z,0
2022-12-28T05:22:50.294Z,0
2022-12-28T05:23:50.310Z,0
2022-12-28T05:24:50.259Z,0
2022-12-28T05:25:50.253Z,0
2022-12-28T05:26:50.294Z,0
2022-12-28T05:27:53.412Z,0
2022-12-28T05:28:50.303Z,0
2022-12-28T05:29:50.276Z,0
2022-12-28T05:30:50.259Z,0
2022-12-28T05:31:50.603Z,0
2022-12-28T05:32:53.423Z,0
2022-12-28T05:33:50.322Z,0
2022-12-28T05:34:50.318Z,0
2022-12-28T05:35:50.274Z,0
2022-12-28T05:36:50.316Z,0
2022-12-28T05:37:50.298Z,0
2022-12-28T05:38:59.079Z,0
2022-12-28T05:39:50.307Z,0
2022-12-28T05:40:50.290Z,0
2022-12-28T05:41:50.305Z,0
2022-12-28T05:42:56.519Z,0
2022-12-28T05:43:53.136Z,0
2022-12-28T05:44:50.301Z,0
2022-12-28T05:45:50.329Z,0
2022-12-28T05:46:50.534Z,0
2022-12-28T05:47:50.300Z,0
2022-12-28T05:48:50.333Z,0
2022-12-28T05:49:54.336Z,0
2022-12-28T05:50:50.431Z,0
2022-12-28T05:51:50.316Z,0
2022-12-28T05:52:50.310Z,0
2022-12-28T05:53:50.340Z,0
2022-12-28T05:54:53.385Z,0
2022-12-28T05:55:50.412Z,0
2022-12-28T05:56:50.322Z,0
2022-12-28T05:57:50.302Z,0
2022-12-28T05:58:50.320Z,0
2022-12-28T05:59:50.309Z,0
2022-12-28T06:00:53.106Z,0
2022-12-28T06:01:51.269Z,0
2022-12-28T06:02:50.765Z,0
2022-12-28T06:03:50.392Z,0
2022-12-28T06:04:50.306Z,0
2022-12-28T06:05:53.374Z,0
2022-12-28T06:06:50.399Z,0
2022-12-28T06:07:50.315Z,0
2022-12-28T06:08:50.372Z,0
2022-12-28T06:09:50.322Z,0
2022-12-28T06:10:50.345Z,0
2022-12-28T06:11:53.436Z,0
2022-12-28T06:12:50.351Z,0
2022-12-28T06:13:50.479Z,0
2022-12-28T06:14:50.325Z,0
2022-12-28T06:15:50.395Z,0
2022-12-28T06:16:53.692Z,0
2022-12-28T06:17:50.360Z,0
2022-12-28T06:18:50.349Z,0
2022-12-28T06:19:50.340Z,0
2022-12-28T06:20:57.079Z,0
2022-12-28T06:21:50.425Z,0
2022-12-28T06:22:50.375Z,0
2022-12-28T06:23:50.371Z,0
2022-12-28T06:24:50.353Z,0
2022-12-28T06:25:50.493Z,0
2022-12-28T06:26:51.274Z,0
2022-12-28T06:27:53.315Z,0
2022-12-28T06:28:50.397Z,0
2022-12-28T06:29:50.372Z,0
2022-12-28T06:30:57.601Z,0
2022-12-28T06:31:50.660Z,0
2022-12-28T06:32:50.377Z,0
2022-12-28T06:33:50.413Z,0
2022-12-28T06:34:50.353Z,0
2022-12-28T06:35:50.368Z,0
2022-12-28T06:36:50.500Z,0
2022-12-28T06:37:50.366Z,0
2022-12-28T06:38:53.457Z,0
2022-12-28T06:39:50.379Z,0
2022-12-28T06:41:23.474Z,0
2022-12-28T06:41:50.407Z,0
2022-12-28T06:42:50.430Z,0
2022-12-28T06:43:50.430Z,0
2022-12-28T06:44:54.695Z,0
2022-12-28T06:45:50.531Z,0
2022-12-28T06:46:50.407Z,0
2022-12-28T06:47:50.373Z,0
2022-12-28T06:48:50.486Z,0
2022-12-28T06:49:53.199Z,4
2022-12-28T06:50:50.388Z,4
2022-12-28T06:51:50.434Z,0
2022-12-28T06:52:50.366Z,0
2022-12-28T06:53:50.551Z,0
2022-12-28T06:54:50.408Z,4
2022-12-28T06:55:50.406Z,4
2022-12-28T06:56:50.443Z,0
2022-12-28T06:57:50.396Z,0
2022-12-28T06:58:50.564Z,4
2022-12-28T06:59:50.427Z,0
2022-12-28T07:00:53.553Z,4
2022-12-28T07:01:51.231Z,0
2022-12-28T07:02:50.780Z,4
2022-12-28T07:03:50.519Z,4
2022-12-28T07:04:50.612Z,4
2022-12-28T07:05:53.416Z,4
2022-12-28T07:06:50.427Z,4
2022-12-28T07:07:50.457Z,4
2022-12-28T07:08:50.442Z,8
2022-12-28T07:09:50.459Z,8
2022-12-28T07:10:50.414Z,4
2022-12-28T07:11:53.516Z,4
2022-12-28T07:12:50.433Z,8
2022-12-28T07:13:50.410Z,12
2022-12-28T07:14:50.440Z,8
2022-12-28T07:15:50.429Z,12
2022-12-28T07:16:53.241Z,12
2022-12-28T07:17:50.421Z,16
2022-12-28T07:18:50.470Z,16
2022-12-28T07:19:50.423Z,20
2022-12-28T07:20:50.487Z,24
2022-12-28T07:21:50.477Z,24
2022-12-28T07:22:50.410Z,28
2022-12-28T07:23:50.486Z,32
2022-12-28T07:24:51.453Z,36
2022-12-28T07:25:50.427Z,40
2022-12-28T07:26:50.439Z,40
2022-12-28T07:27:53.223Z,44
2022-12-28T07:28:50.515Z,44
2022-12-28T07:29:50.458Z,44
2022-12-28T07:30:50.652Z,44
2022-12-28T07:31:52.771Z,48
2022-12-28T07:32:50.441Z,52
2022-12-28T07:33:50.511Z,52
2022-12-28T07:34:50.452Z,56
2022-12-28T07:35:50.445Z,64
2022-12-28T07:36:50.483Z,68
2022-12-28T07:37:50.557Z,76
2022-12-28T07:38:50.552Z,80
2022-12-28T07:39:50.485Z,80
2022-12-28T07:40:50.500Z,80
2022-12-28T07:41:50.480Z,84
2022-12-28T07:42:52.976Z,88
2022-12-28T07:43:50.523Z,88
2022-12-28T07:44:55.753Z,96
2022-12-28T07:45:50.711Z,100
2022-12-28T07:46:50.526Z,104
2022-12-28T07:47:50.523Z,108
2022-12-28T07:48:50.520Z,112
2022-12-28T07:49:50.489Z,112
2022-12-28T07:50:50.462Z,112
2022-12-28T07:51:50.472Z,108
2022-12-28T07:52:50.517Z,108
2022-12-28T07:53:50.555Z,108
2022-12-28T07:54:53.545Z,108
2022-12-28T07:55:50.475Z,104
2022-12-28T07:56:50.503Z,108
2022-12-28T07:57:50.476Z,108
2022-12-28T07:59:53.543Z,108
2022-12-28T08:00:50.487Z,116
2022-12-28T08:01:51.125Z,120
2022-12-28T08:02:50.542Z,120
2022-12-28T08:03:50.714Z,128
2022-12-28T08:04:57.034Z,136
2022-12-28T08:05:53.247Z,136
2022-12-28T08:06:51.000Z,144
2022-12-28T08:07:50.507Z,152
2022-12-28T08:08:50.543Z,152
2022-12-28T08:09:50.521Z,156
2022-12-28T08:10:53.557Z,160
2022-12-28T08:11:50.509Z,164
2022-12-28T08:12:50.526Z,172
2022-12-28T08:13:50.512Z,164
2022-12-28T08:14:50.508Z,156
2022-12-28T08:15:50.635Z,148
2022-12-28T08:16:53.744Z,144
2022-12-28T08:17:50.511Z,144
2022-12-28T08:18:50.515Z,148
2022-12-28T08:19:50.554Z,148
2022-12-28T08:20:50.551Z,152
2022-12-28T08:21:53.577Z,152
2022-12-28T08:22:50.532Z,156
2022-12-28T08:23:50.510Z,156
2022-12-28T08:24:50.620Z,160
2022-12-28T08:25:50.528Z,164
2022-12-28T08:26:50.554Z,168
2022-12-28T08:27:53.603Z,164
2022-12-28T08:28:50.539Z,160
2022-12-28T08:29:50.540Z,152
2022-12-28T08:30:50.887Z,148
2022-12-28T08:31:50.576Z,144
2022-12-28T08:32:53.613Z,140
2022-12-28T08:33:50.528Z,132
2022-12-28T08:34:50.559Z,132
2022-12-28T08:35:50.599Z,128
2022-12-28T08:36:50.704Z,128
2022-12-28T08:37:50.540Z,128
2022-12-28T08:38:53.572Z,128
2022-12-28T08:39:50.562Z,132
2022-12-28T08:40:57.602Z,136
2022-12-28T08:41:50.654Z,140
2022-12-28T08:42:50.592Z,144
2022-12-28T08:43:53.570Z,152
2022-12-28T08:44:50.558Z,160
2022-12-28T08:45:50.750Z,168
2022-12-28T08:46:51.074Z,172
2022-12-28T08:47:50.562Z,176
2022-12-28T08:48:50.562Z,180
2022-12-28T08:49:50.579Z,184
2022-12-28T08:50:50.617Z,188
2022-12-28T08:51:50.597Z,188
2022-12-28T08:52:50.555Z,188
2022-12-28T08:53:50.614Z,192
2022-12-28T08:54:53.387Z,196
2022-12-28T08:55:50.570Z,200
2022-12-28T08:56:50.637Z,204
2022-12-28T08:57:50.600Z,208
2022-12-28T08:58:50.679Z,208
2022-12-28T08:59:50.599Z,212
2022-12-28T09:00:50.595Z,212
2022-12-28T09:01:52.281Z,216
2022-12-28T09:02:51.345Z,220
2022-12-28T09:03:50.918Z,220
2022-12-28T09:04:50.628Z,224
2022-12-28T09:05:58.967Z,220
2022-12-28T09:06:50.651Z,220
2022-12-28T09:07:53.594Z,220
2022-12-28T09:09:11.750Z,228
2022-12-28T09:09:50.821Z,228
2022-12-28T09:10:50.611Z,220
2022-12-28T09:11:50.592Z,220
2022-12-28T09:12:50.608Z,220
2022-12-28T09:13:50.594Z,224
2022-12-28T09:14:50.696Z,224
2022-12-28T09:15:50.921Z,228
2022-12-28T09:16:53.875Z,228
2022-12-28T09:17:50.624Z,228
2022-12-28T09:18:50.598Z,236
2022-12-28T09:19:50.615Z,240
2022-12-28T09:20:54.831Z,252
2022-12-28T09:21:50.634Z,260
2022-12-28T09:22:50.666Z,272
2022-12-28T09:23:50.651Z,284
2022-12-28T09:24:50.680Z,288
2022-12-28T09:25:50.825Z,288
2022-12-28T09:26:50.637Z,292
2022-12-28T09:28:01.248Z,292
2022-12-28T09:28:50.643Z,288
2022-12-28T09:29:50.641Z,284
2022-12-28T09:30:50.722Z,292
2022-12-28T09:31:50.819Z,300
2022-12-28T09:32:53.626Z,296
2022-12-28T09:34:45.786Z,296
2022-12-28T09:34:55.252Z,296
2022-12-28T09:35:55.262Z,300
2022-12-28T09:36:55.265Z,304
2022-12-28T09:37:55.258Z,292
2022-12-28T09:38:58.391Z,304
2022-12-28T09:40:01.528Z,308
2022-12-28T09:40:55.260Z,316
2022-12-28T09:41:55.255Z,312
2022-12-28T09:42:55.305Z,320
2022-12-28T09:43:55.307Z,324
2022-12-28T09:44:55.314Z,320
2022-12-28T09:45:55.288Z,324
2022-12-28T09:46:56.245Z,316
2022-12-28T09:47:55.262Z,320
2022-12-28T09:48:55.260Z,316
2022-12-28T09:49:55.280Z,312
2022-12-28T09:50:55.274Z,312
2022-12-28T09:51:55.281Z,308
2022-12-28T09:52:56.969Z,300
2022-12-28T09:53:55.330Z,292
2022-12-28T09:54:55.321Z,280
2022-12-28T09:55:55.263Z,276
2022-12-28T09:56:55.262Z,268
2022-12-28T09:57:55.276Z,264
2022-12-28T09:58:55.264Z,260
2022-12-28T09:59:55.309Z,272
2022-12-28T10:00:55.361Z,268
2022-12-28T10:01:55.904Z,260
2022-12-28T10:02:55.793Z,260
2022-12-28T10:03:55.292Z,256
2022-12-28T10:04:56.489Z,252
2022-12-28T10:05:58.110Z,248
2022-12-28T10:06:55.260Z,248
2022-12-28T10:07:55.360Z,248
2022-12-28T10:08:55.333Z,248
2022-12-28T10:09:55.335Z,244
2022-12-28T10:10:56.235Z,240
2022-12-28T10:11:55.272Z,236
2022-12-28T10:12:55.333Z,236
2022-12-28T10:14:03.301Z,232
2022-12-28T10:14:55.317Z,232
2022-12-28T10:15:55.563Z,228
2022-12-28T10:16:58.824Z,224
2022-12-28T10:17:55.333Z,228
2022-12-28T10:18:55.318Z,224
2022-12-28T10:19:55.357Z,220
2022-12-28T10:20:55.360Z,216
2022-12-28T10:21:58.448Z,216
2022-12-28T10:22:57.244Z,212
2022-12-28T10:24:39.570Z,212
2022-12-28T10:24:55.300Z,212
2022-12-28T10:25:55.288Z,212
2022-12-28T10:26:55.330Z,212
2022-12-28T10:27:58.092Z,212
2022-12-28T10:28:55.954Z,216
2022-12-28T10:29:55.350Z,216
2022-12-28T10:30:55.333Z,216
2022-12-28T10:31:55.364Z,224
2022-12-28T10:33:07.739Z,220
2022-12-28T10:33:55.318Z,228
2022-12-28T10:34:55.346Z,236
2022-12-28T10:35:55.324Z,240
2022-12-28T10:36:55.330Z,248
2022-12-28T10:37:55.312Z,256
2022-12-28T10:38:58.432Z,264
2022-12-28T10:39:55.391Z,288
2022-12-28T10:40:55.313Z,300
2022-12-28T10:41:55.321Z,316
2022-12-28T10:42:55.354Z,324
2022-12-28T10:44:43.952Z,348
2022-12-28T10:44:55.332Z,344
2022-12-28T10:45:55.334Z,356
2022-12-28T10:46:55.598Z,352
2022-12-28T10:47:55.345Z,348
2022-12-28T10:48:55.460Z,348
2022-12-28T10:50:41.575Z,336
2022-12-28T10:50:55.348Z,332
2022-12-28T10:51:55.340Z,324
2022-12-28T10:52:55.353Z,316
2022-12-28T10:53:55.341Z,308
2022-12-28T10:55:15.346Z,296
2022-12-28T10:55:55.398Z,296
2022-12-28T10:56:55.335Z,292
2022-12-28T10:58:41.835Z,292
2022-12-28T10:58:55.425Z,296
2022-12-28T10:59:55.420Z,296
2022-12-28T11:01:02.687Z,292
2022-12-28T11:01:56.354Z,292
2022-12-28T11:02:56.230Z,296
2022-12-28T11:03:55.556Z,296
2022-12-28T11:04:55.397Z,300
2022-12-28T11:06:04.262Z,308
2022-12-28T11:06:55.361Z,312
2022-12-28T11:07:55.381Z,324
2022-12-28T11:08:55.335Z,336
2022-12-28T11:09:55.381Z,340
2022-12-28T11:10:55.382Z,348
2022-12-28T11:11:55.342Z,344
2022-12-28T11:12:55.369Z,340
2022-12-28T11:13:55.375Z,340
2022-12-28T11:14:55.508Z,344
2022-12-28T11:15:55.631Z,340
2022-12-28T11:16:58.278Z,352
2022-12-28T11:17:55.389Z,344
2022-12-28T11:18:55.393Z,344
2022-12-28T11:19:55.426Z,344
2022-12-28T11:20:55.457Z,348
2022-12-28T11:21:55.387Z,352
2022-12-28T11:22:55.361Z,348
2022-12-28T11:23:55.405Z,352
2022-12-28T11:24:55.458Z,348
2022-12-28T11:25:55.470Z,356
2022-12-28T11:26:55.491Z,396
2022-12-28T11:27:58.379Z,360
2022-12-28T11:28:55.866Z,384
2022-12-28T11:29:55.747Z,376
2022-12-28T11:30:55.650Z,368
2022-12-28T11:31:56.775Z,368
2022-12-28T11:32:55.425Z,372
2022-12-28T11:33:55.407Z,368
2022-12-28T11:34:55.440Z,368
2022-12-28T11:36:00.558Z,384
2022-12-28T11:36:55.407Z,328
2022-12-28T11:37:55.403Z,276
2022-12-28T11:38:58.585Z,284
2022-12-28T11:39:55.450Z,272
2022-12-28T11:40:55.388Z,240
2022-12-28T11:42:44.150Z,232
2022-12-28T11:42:55.409Z,244
2022-12-28T11:43:58.504Z,232
2022-12-28T11:44:55.500Z,256
2022-12-28T11:45:55.847Z,280
2022-12-28T11:46:55.581Z,300
2022-12-28T11:47:55.403Z,288
2022-12-28T11:48:55.398Z,296
2022-12-28T11:49:58.227Z,296
2022-12-28T11:50:55.420Z,304
2022-12-28T11:51:55.475Z,308
2022-12-28T11:52:55.467Z,308
2022-12-28T11:53:55.450Z,296
2022-12-28T11:54:56.282Z,292
2022-12-28T11:55:55.421Z,284
2022-12-28T11:56:55.461Z,276
2022-12-28T11:57:55.442Z,276
2022-12-28T11:58:55.415Z,248
2022-12-28T11:59:55.442Z,264
2022-12-28T12:00:58.513Z,268
2022-12-28T12:01:55.640Z,240
2022-12-28T12:02:55.506Z,224
2022-12-28T12:03:55.435Z,236
2022-12-28T12:04:55.450Z,236
2022-12-28T12:05:58.235Z,244
2022-12-28T12:06:55.469Z,256
2022-12-28T12:07:55.505Z,256
2022-12-28T12:08:55.473Z,252
2022-12-28T12:09:55.493Z,248
2022-12-28T12:10:55.488Z,244
2022-12-28T12:11:55.503Z,244
2022-12-28T12:12:55.509Z,240
2022-12-28T12:13:55.531Z,236
2022-12-28T12:14:55.479Z,228
2022-12-28T12:15:55.455Z,232
2022-12-28T12:16:55.848Z,220
2022-12-28T12:17:55.456Z,216
2022-12-28T12:18:55.526Z,236
2022-12-28T12:19:55.509Z,244
2022-12-28T12:20:55.485Z,252
2022-12-28T12:21:55.449Z,240
2022-12-28T12:22:55.468Z,232
2022-12-28T12:23:55.531Z,240
2022-12-28T12:24:55.924Z,244
2022-12-28T12:25:55.495Z,228
2022-12-28T12:26:55.500Z,232
2022-12-28T12:28:55.485Z,204
2022-12-28T12:29:55.613Z,188
2022-12-28T12:30:55.592Z,184
2022-12-28T12:31:55.562Z,184
2022-12-28T12:32:58.481Z,184
2022-12-28T12:33:55.501Z,188
2022-12-28T12:34:55.543Z,192
2022-12-28T12:35:55.455Z,192
2022-12-28T12:36:55.531Z,184
2022-12-28T12:37:55.808Z,180
2022-12-28T12:38:55.488Z,184
2022-12-28T12:39:55.591Z,188
2022-12-28T12:40:55.620Z,188
2022-12-28T12:41:55.489Z,180
2022-12-28T12:42:55.640Z,176
2022-12-28T12:43:58.495Z,180
2022-12-28T12:44:55.575Z,176
2022-12-28T12:45:55.806Z,180
2022-12-28T12:46:58.050Z,184
2022-12-28T12:47:55.511Z,192
2022-12-28T12:48:58.551Z,200
2022-12-28T12:49:55.540Z,208
2022-12-28T12:50:55.549Z,216
2022-12-28T12:51:55.536Z,220
2022-12-28T12:52:55.545Z,224
2022-12-28T12:53:56.026Z,228
2022-12-28T12:54:58.668Z,224
2022-12-28T12:55:55.524Z,224
2022-12-28T12:56:55.530Z,220
2022-12-28T12:57:55.536Z,220
2022-12-28T12:58:55.535Z,224
2022-12-28T12:59:56.066Z,228
2022-12-28T13:00:56.020Z,228
2022-12-28T13:01:56.161Z,236
2022-12-28T13:02:56.119Z,256
2022-12-28T13:03:55.543Z,260
2022-12-28T13:04:55.591Z,256
2022-12-28T13:05:58.326Z,268
2022-12-28T13:06:55.577Z,272
2022-12-28T13:07:55.527Z,256
2022-12-28T13:08:58.013Z,268
2022-12-28T13:09:55.580Z,264
2022-12-28T13:10:58.342Z,280
2022-12-28T13:11:55.551Z,276
2022-12-28T13:12:55.576Z,268
2022-12-28T13:13:55.545Z,268
2022-12-28T13:14:55.570Z,264
2022-12-28T13:15:55.815Z,256
2022-12-28T13:16:58.565Z,240
2022-12-28T13:18:59.924Z,208
2022-12-28T13:20:00.003Z,196
2022-12-28T13:20:59.991Z,188
2022-12-28T13:21:59.964Z,172
2022-12-28T13:22:59.922Z,168
2022-12-28T13:23:59.892Z,164
2022-12-28T13:24:59.935Z,164
2022-12-28T13:25:59.915Z,164
2022-12-28T13:26:59.979Z,168
2022-12-28T13:28:02.981Z,184
2022-12-28T13:28:59.931Z,176
2022-12-28T13:30:00.030Z,176
2022-12-28T13:31:00.178Z,172
2022-12-28T13:31:59.938Z,160
2022-12-28T13:32:59.979Z,148
2022-12-28T13:33:59.919Z,144
2022-12-28T13:34:59.941Z,144
2022-12-28T13:35:59.923Z,140
2022-12-28T13:36:59.937Z,136
2022-12-28T13:37:59.987Z,128
2022-12-28T13:39:02.986Z,124
2022-12-28T13:39:59.938Z,120
2022-12-28T13:41:00.037Z,112
2022-12-28T13:41:59.996Z,108
2022-12-28T13:43:00.034Z,100
2022-12-28T13:44:02.809Z,96
2022-12-28T13:44:59.944Z,92
2022-12-28T13:46:00.295Z,96
2022-12-28T13:46:59.950Z,96
2022-12-28T13:47:59.950Z,104
2022-12-28T13:48:59.961Z,108
2022-12-28T13:50:03.005Z,116
2022-12-28T13:50:59.995Z,120
2022-12-28T13:52:00.679Z,120
2022-12-28T13:52:59.982Z,120
2022-12-28T13:53:59.994Z,116
2022-12-28T13:55:01.450Z,112
2022-12-28T13:55:59.987Z,116
2022-12-28T13:57:59.383Z,116
2022-12-28T13:58:09.219Z,116
2022-12-28T13:59:09.169Z,112
2022-12-28T14:00:09.181Z,108
2022-12-28T14:01:09.885Z,100
2022-12-28T14:02:09.914Z,96
2022-12-28T14:03:09.150Z,96
2022-12-28T14:04:58.545Z,92
2022-12-28T14:05:09.594Z,96
2022-12-28T14:06:09.149Z,92
2022-12-28T14:07:09.167Z,92
2022-12-28T14:08:09.200Z,92
2022-12-28T14:09:12.860Z,88
2022-12-28T14:10:09.228Z,84
2022-12-28T14:11:09.281Z,84
2022-12-28T14:12:09.174Z,80
2022-12-28T14:13:09.167Z,76
2022-12-28T14:14:09.201Z,76
2022-12-28T14:15:09.227Z,72
2022-12-28T14:16:09.500Z,68
2022-12-28T14:17:09.158Z,68
2022-12-28T14:18:09.217Z,64
2022-12-28T14:19:09.223Z,60
2022-12-28T14:20:09.416Z,64
2022-12-28T14:21:09.255Z,56
2022-12-28T14:22:16.210Z,52